Abbotsford Airport
CYXX : now visible

Airfield :











YOU CAN JOIN US ON...

 
LOGIN :

Register | Disclaimer

   EN    FR    IT 

 









Legend :    VFR   Marginal VFR   IFR   Intensive IFR   Very Intensive IFR
Visi :
Ceiling :
>= 8 km
>= 3000ft
5 to 8 km
1000 to 3000 ft
1500m to 5 km
500 to 1000 ft
800 to 1500m
200 to 500 ft
< 800m
< 200 ft
Symbols :   Thunderstorms  Fog  Heavy snow  Heavy precipitations  Wind > 20 kt






- Airport Elevation : 195 ft
- IATA code : YXX


CYXX - Abbotsford

METAR N/A
TAF AMD TAF CYXX
Valid from the 19 at 18:00 until the 20 at 18:00 UTC


191810Z 1918/2018 20012KT P6SM SCT006 OVC040
TEMPO 1918/1921 11/2SM -RA BR BKN006 OVC040
FM192100 20010KT P6SM SCT015 OVC040
TEMPO 1921/2009 5SM -SHRA BR SCT006 OVC015
FM200900 19006KT 2SM BR OVC008
TEMPO 2009/2018 P6SM NSW SCT008 OVC015 RMK NXT FCST BY 200000Z
CZVR FIR / North America



MET'MAP, your aeronautical weather chart ! - Copyright ORBIFLY December 2007 - Disclaimer

ORBIFLY MET'MAP TEAM :

Programming & Development : Alexandra Zaïnal
Concept & original design : Baudouin d'Aumeries
Assistance for programming : Marc-Olivier Méhu
Technical & hardware support : Manuel Goepfert

Contact : metmap@orbifly.com




SOURCES & CREDITS :

   NOAA       Earth
Advisory